sensor_id;sensor_type;location;lat;lon;timestamp;pressure;altitude;pressure_sealevel;temperature;humidity
80180;BME280;69505;52.134;5.438;2024-03-07T00:00:18;102864.00;;;2.03;100.00
80180;BME280;69505;52.134;5.438;2024-03-07T00:02:47;102860.56;;;1.96;100.00
80180;BME280;69505;52.134;5.438;2024-03-07T00:05:16;102863.22;;;1.93;100.00
80180;BME280;69505;52.134;5.438;2024-03-07T00:07:43;102860.59;;;1.90;100.00
80180;BME280;69505;52.134;5.438;2024-03-07T00:10:10;102871.09;;;1.90;100.00
80180;BME280;69505;52.134;5.438;2024-03-07T00:12:37;102865.88;;;1.84;100.00
80180;BME280;69505;52.134;5.438;2024-03-07T00:15:09;102874.63;;;1.83;100.00
80180;BME280;69505;52.134;5.438;2024-03-07T00:17:40;102864.16;;;1.80;100.00
80180;BME280;69505;52.134;5.438;2024-03-07T00:20:08;102862.44;;;1.79;100.00
80180;BME280;69505;52.134;5.438;2024-03-07T00:22:36;102862.44;;;1.76;100.00
80180;BME280;69505;52.134;5.438;2024-03-07T00:25:03;102865.09;;;1.74;100.00
80180;BME280;69505;52.134;5.438;2024-03-07T00:27:33;102864.22;;;1.74;100.00
80180;BME280;69505;52.134;5.438;2024-03-07T00:30:00;102858.09;;;1.75;100.00
80180;BME280;69505;52.134;5.438;2024-03-07T00:32:27;102864.25;;;1.69;100.00
80180;BME280;69505;52.134;5.438;2024-03-07T00:34:56;102864.25;;;1.68;100.00
80180;BME280;69505;52.134;5.438;2024-03-07T00:37:23;102867.78;;;1.67;100.00
80180;BME280;69505;52.134;5.438;2024-03-07T00:39:51;102863.38;;;1.67;100.00
80180;BME280;69505;52.134;5.438;2024-03-07T00:42:18;102869.53;;;1.66;100.00
80180;BME280;69505;52.134;5.438;2024-03-07T00:44:44;102864.28;;;1.63;100.00
80180;BME280;69505;52.134;5.438;2024-03-07T00:47:11;102869.53;;;1.61;100.00
80180;BME280;69505;52.134;5.438;2024-03-07T00:49:38;102860.81;;;1.59;100.00
80180;BME280;69505;52.134;5.438;2024-03-07T00:52:05;102868.66;;;1.59;100.00
80180;BME280;69505;52.134;5.438;2024-03-07T00:54:31;102863.47;;;1.58;100.00
80180;BME280;69505;52.134;5.438;2024-03-07T00:56:58;102867.84;;;1.54;100.00
80180;BME280;69505;52.134;5.438;2024-03-07T00:59:25;102869.59;;;1.52;100.00
80180;BME280;69505;52.134;5.438;2024-03-07T01:01:51;102864.41;;;1.49;100.00
80180;BME280;69505;52.134;5.438;2024-03-07T01:04:18;102860.88;;;1.49;100.00
80180;BME280;69505;52.134;5.438;2024-03-07T01:06:45;102863.50;;;1.49;100.00
80180;BME280;69505;52.134;5.438;2024-03-07T01:09:11;102856.53;;;1.48;100.00
80180;BME280;69505;52.134;5.438;2024-03-07T01:11:43;102865.28;;;1.44;100.00
80180;BME280;69505;52.134;5.438;2024-03-07T01:14:14;102852.19;;;1.42;100.00
80180;BME280;69505;52.134;5.438;2024-03-07T01:16:41;102860.06;;;1.40;100.00
80180;BME280;69505;52.134;5.438;2024-03-07T01:19:07;102853.09;;;1.39;100.00
80180;BME280;69505;52.134;5.438;2024-03-07T01:21:35;102853.09;;;1.39;100.00
80180;BME280;69505;52.134;5.438;2024-03-07T01:24:05;102847.00;;;1.36;100.00
80180;BME280;69505;52.134;5.438;2024-03-07T01:26:32;102855.72;;;1.36;100.00
80180;BME280;69505;52.134;5.438;2024-03-07T01:29:02;102852.28;;;1.33;100.00
80180;BME280;69505;52.134;5.438;2024-03-07T01:31:29;102859.22;;;1.34;100.00
80180;BME280;69505;52.134;5.438;2024-03-07T01:33:56;102850.50;;;1.33;100.00
80180;BME280;69505;52.134;5.438;2024-03-07T01:36:22;102849.63;;;1.34;100.00
80180;BME280;69505;52.134;5.438;2024-03-07T01:38:49;102851.38;;;1.37;100.00
80180;BME280;69505;52.134;5.438;2024-03-07T01:41:16;102851.38;;;1.34;100.00
80180;BME280;69505;52.134;5.438;2024-03-07T01:43:43;102851.41;;;1.28;100.00
80180;BME280;69505;52.134;5.438;2024-03-07T01:46:10;102851.41;;;1.28;100.00
80180;BME280;69505;52.134;5.438;2024-03-07T01:48:37;102853.16;;;1.29;100.00
80180;BME280;69505;52.134;5.438;2024-03-07T01:51:05;102842.69;;;1.27;100.00
80180;BME280;69505;52.134;5.438;2024-03-07T01:53:32;102848.78;;;1.28;100.00
80180;BME280;69505;52.134;5.438;2024-03-07T01:56:02;102842.72;;;1.24;100.00
80180;BME280;69505;52.134;5.438;2024-03-07T01:58:29;102841.88;;;1.19;100.00
80180;BME280;69505;52.134;5.438;2024-03-07T02:00:58;102841.88;;;1.20;100.00
80180;BME280;69505;52.134;5.438;2024-03-07T02:03:25;102834.03;;;1.14;100.00
80180;BME280;69505;52.134;5.438;2024-03-07T02:05:52;102838.38;;;1.15;100.00
80180;BME280;69505;52.134;5.438;2024-03-07T02:08:19;102837.53;;;1.16;100.00
80180;BME280;69505;52.134;5.438;2024-03-07T02:10:46;102841.00;;;1.17;100.00
80180;BME280;69505;52.134;5.438;2024-03-07T02:13:13;102836.63;;;1.17;100.00
80180;BME280;69505;52.134;5.438;2024-03-07T02:15:39;102835.75;;;1.18;100.00
80180;BME280;69505;52.134;5.438;2024-03-07T02:18:08;102840.97;;;1.23;100.00
80180;BME280;69505;52.134;5.438;2024-03-07T02:20:36;102841.81;;;1.30;100.00
80180;BME280;69505;52.134;5.438;2024-03-07T02:23:03;102837.47;;;1.30;100.00
80180;BME280;69505;52.134;5.438;2024-03-07T02:25:30;102825.22;;;1.29;100.00
80180;BME280;69505;52.134;5.438;2024-03-07T02:27:58;102834.81;;;1.32;100.00
80180;BME280;69505;52.134;5.438;2024-03-07T02:41:50;102837.47;;;1.27;100.00
80180;BME280;69505;52.134;5.438;2024-03-07T02:44:17;102834.88;;;1.24;100.00
80180;BME280;69505;52.134;5.438;2024-03-07T02:46:43;102828.78;;;1.22;100.00
80180;BME280;69505;52.134;5.438;2024-03-07T02:49:10;102826.19;;;1.14;100.00
80180;BME280;69505;52.134;5.438;2024-03-07T02:51:37;102820.97;;;1.14;100.00
80180;BME280;69505;52.134;5.438;2024-03-07T02:54:03;102823.56;;;1.11;100.00
80180;BME280;69505;52.134;5.438;2024-03-07T02:56:32;102823.56;;;1.13;100.00
80180;BME280;69505;52.134;5.438;2024-03-07T02:58:58;102824.47;;;1.10;100.00
80180;BME280;69505;52.134;5.438;2024-03-07T03:01:29;102813.16;;;1.02;100.00
80180;BME280;69505;52.134;5.438;2024-03-07T03:03:56;102814.91;;;1.06;100.00
80180;BME280;69505;52.134;5.438;2024-03-07T03:06:22;102814.03;;;1.02;100.00
80180;BME280;69505;52.134;5.438;2024-03-07T03:08:49;102813.19;;;0.99;100.00
80180;BME280;69505;52.134;5.438;2024-03-07T03:11:16;102809.69;;;0.98;100.00
80180;BME280;69505;52.134;5.438;2024-03-07T03:13:43;102808.81;;;0.98;100.00
80180;BME280;69505;52.134;5.438;2024-03-07T03:16:10;102800.97;;;0.98;100.00
80180;BME280;69505;52.134;5.438;2024-03-07T03:18:37;102804.47;;;0.94;100.00
80180;BME280;69505;52.134;5.438;2024-03-07T03:21:03;102799.28;;;0.88;100.00
80180;BME280;69505;52.134;5.438;2024-03-07T03:23:30;102788.84;;;0.86;100.00
80180;BME280;69505;52.134;5.438;2024-03-07T03:25:57;102789.72;;;0.87;100.00
80180;BME280;69505;52.134;5.438;2024-03-07T03:28:23;102789.72;;;0.87;100.00
80180;BME280;69505;52.134;5.438;2024-03-07T03:30:50;102794.09;;;0.80;100.00
80180;BME280;69505;52.134;5.438;2024-03-07T03:33:18;102783.66;;;0.74;100.00
80180;BME280;69505;52.134;5.438;2024-03-07T03:35:45;102784.50;;;0.77;100.00
80180;BME280;69505;52.134;5.438;2024-03-07T03:38:12;102776.69;;;0.76;100.00
80180;BME280;69505;52.134;5.438;2024-03-07T03:40:39;102782.78;;;0.75;100.00
80180;BME280;69505;52.134;5.438;2024-03-07T03:43:06;102780.16;;;0.73;100.00
80180;BME280;69505;52.134;5.438;2024-03-07T03:45:32;102778.44;;;0.69;100.00
80180;BME280;69505;52.134;5.438;2024-03-07T03:48:00;102785.41;;;0.67;100.00
80180;BME280;69505;52.134;5.438;2024-03-07T03:50:28;102784.56;;;0.62;100.00
80180;BME280;69505;52.134;5.438;2024-03-07T03:52:55;102793.31;;;0.61;100.00
80180;BME280;69505;52.134;5.438;2024-03-07T03:55:23;102788.94;;;0.60;100.00
80180;BME280;69505;52.134;5.438;2024-03-07T03:57:50;102786.31;;;0.60;100.00
80180;BME280;69505;52.134;5.438;2024-03-07T04:00:17;102787.22;;;0.57;100.00
80180;BME280;69505;52.134;5.438;2024-03-07T04:02:45;102787.22;;;0.54;100.00
80180;BME280;69505;52.134;5.438;2024-03-07T04:05:17;102785.47;;;0.52;100.00
80180;BME280;69505;52.134;5.438;2024-03-07T04:07:45;102784.59;;;0.48;100.00
80180;BME280;69505;52.134;5.438;2024-03-07T04:10:12;102790.72;;;0.49;100.00
80180;BME280;69505;52.134;5.438;2024-03-07T04:12:40;102781.13;;;0.46;100.00
80180;BME280;69505;52.134;5.438;2024-03-07T04:15:08;102782.03;;;0.44;100.00
80180;BME280;69505;52.134;5.438;2024-03-07T04:17:36;102778.53;;;0.46;100.00
80180;BME280;69505;52.134;5.438;2024-03-07T04:20:06;102785.50;;;0.44;100.00
80180;BME280;69505;52.134;5.438;2024-03-07T04:22:34;102775.06;;;0.43;100.00
80180;BME280;69505;52.134;5.438;2024-03-07T04:25:02;102780.28;;;0.39;100.00
80180;BME280;69505;52.134;5.438;2024-03-07T04:27:28;102770.72;;;0.38;100.00
80180;BME280;69505;52.134;5.438;2024-03-07T04:29:55;102769.00;;;0.36;100.00
80180;BME280;69505;52.134;5.438;2024-03-07T04:32:22;102773.31;;;0.35;100.00
80180;BME280;69505;52.134;5.438;2024-03-07T04:34:49;102779.41;;;0.37;100.00
80180;BME280;69505;52.134;5.438;2024-03-07T04:37:16;102778.56;;;0.32;100.00
80180;BME280;69505;52.134;5.438;2024-03-07T04:39:43;102781.16;;;0.35;100.00
80180;BME280;69505;52.134;5.438;2024-03-07T04:42:10;102777.72;;;0.30;100.00
80180;BME280;69505;52.134;5.438;2024-03-07T04:44:37;102780.31;;;0.32;100.00
80180;BME280;69505;52.134;5.438;2024-03-07T04:47:04;102775.97;;;0.29;100.00
80180;BME280;69505;52.134;5.438;2024-03-07T04:49:31;102777.72;;;0.30;100.00
80180;BME280;69505;52.134;5.438;2024-03-07T04:51:59;102770.72;;;0.29;100.00
80180;BME280;69505;52.134;5.438;2024-03-07T04:54:27;102774.25;;;0.30;100.00
80180;BME280;69505;52.134;5.438;2024-03-07T04:56:54;102773.38;;;0.28;100.00
80180;BME280;69505;52.134;5.438;2024-03-07T04:59:22;102776.88;;;0.24;100.00
80180;BME280;69505;52.134;5.438;2024-03-07T05:01:49;102778.59;;;0.23;100.00
80180;BME280;69505;52.134;5.438;2024-03-07T05:04:17;102769.00;;;0.20;100.00
80180;BME280;69505;52.134;5.438;2024-03-07T05:06:44;102768.16;;;0.18;100.00
80180;BME280;69505;52.134;5.438;2024-03-07T05:09:14;102769.91;;;0.18;100.00
80180;BME280;69505;52.134;5.438;2024-03-07T05:11:49;102764.66;;;0.16;100.00
80180;BME280;69505;52.134;5.438;2024-03-07T05:14:18;102773.38;;;0.14;100.00
80180;BME280;69505;52.134;5.438;2024-03-07T05:16:45;102770.78;;;0.14;100.00
80180;BME280;69505;52.134;5.438;2024-03-07T05:19:12;102776.00;;;0.09;100.00
80180;BME280;69505;52.134;5.438;2024-03-07T05:21:39;102763.81;;;0.08;100.00
80180;BME280;69505;52.134;5.438;2024-03-07T05:24:07;102778.63;;;0.09;100.00
80180;BME280;69505;52.134;5.438;2024-03-07T05:26:35;102770.78;;;0.08;100.00
80180;BME280;69505;52.134;5.438;2024-03-07T05:29:08;102769.06;;;0.07;100.00
80180;BME280;69505;52.134;5.438;2024-03-07T05:31:37;102773.41;;;0.08;100.00
80180;BME280;69505;52.134;5.438;2024-03-07T05:34:05;102772.53;;;0.09;100.00
80180;BME280;69505;52.134;5.438;2024-03-07T05:36:35;102772.53;;;0.06;100.00
80180;BME280;69505;52.134;5.438;2024-03-07T05:39:02;102777.78;;;0.03;100.00
80180;BME280;69505;52.134;5.438;2024-03-07T05:41:41;102772.56;;;0.03;100.00
80180;BME280;69505;52.134;5.438;2024-03-07T05:44:08;102768.19;;;0.03;100.00
80180;BME280;69505;52.134;5.438;2024-03-07T05:46:38;102769.91;;;0.04;100.00
80180;BME280;69505;52.134;5.438;2024-03-07T05:49:13;102771.66;;;0.02;100.00
80180;BME280;69505;52.134;5.438;2024-03-07T05:51:40;102776.00;;;0.06;100.00
80180;BME280;69505;52.134;5.438;2024-03-07T05:54:11;102777.78;;;0.03;100.00
80180;BME280;69505;52.134;5.438;2024-03-07T05:56:40;102766.47;;;0.01;100.00
80180;BME280;69505;52.134;5.438;2024-03-07T05:59:07;102772.53;;;-0.01;100.00
80180;BME280;69505;52.134;5.438;2024-03-07T06:01:36;102770.81;;;-0.02;100.00
80180;BME280;69505;52.134;5.438;2024-03-07T06:04:05;102779.50;;;-0.03;100.00
80180;BME280;69505;52.134;5.438;2024-03-07T06:06:37;102778.66;;;-0.03;100.00
80180;BME280;69505;52.134;5.438;2024-03-07T06:09:06;102784.75;;;-0.04;100.00
80180;BME280;69505;52.134;5.438;2024-03-07T06:11:37;102783.84;;;-0.05;100.00
80180;BME280;69505;52.134;5.438;2024-03-07T06:14:05;102780.41;;;-0.02;100.00
80180;BME280;69505;52.134;5.438;2024-03-07T06:16:36;102791.72;;;-0.02;100.00
80180;BME280;69505;52.134;5.438;2024-03-07T06:19:06;102784.75;;;0.01;100.00
80180;BME280;69505;52.134;5.438;2024-03-07T06:21:39;102787.31;;;0.02;100.00
80180;BME280;69505;52.134;5.438;2024-03-07T06:24:06;102786.44;;;0.06;100.00
80180;BME280;69505;52.134;5.438;2024-03-07T06:26:36;102784.72;;;0.07;100.00
80180;BME280;69505;52.134;5.438;2024-03-07T06:29:04;102782.13;;;0.05;100.00
80180;BME280;69505;52.134;5.438;2024-03-07T06:31:34;102786.47;;;0.08;100.00
80180;BME280;69505;52.134;5.438;2024-03-07T06:34:04;102786.47;;;0.08;100.00
80180;BME280;69505;52.134;5.438;2024-03-07T06:36:31;102791.69;;;0.15;100.00
80180;BME280;69505;52.134;5.438;2024-03-07T06:38:57;102784.72;;;0.16;100.00
80180;BME280;69505;52.134;5.438;2024-03-07T06:41:24;102786.44;;;0.14;100.00
80180;BME280;69505;52.134;5.438;2024-03-07T06:43:51;102789.06;;;0.17;100.00
80180;BME280;69505;52.134;5.438;2024-03-07T06:46:21;102791.66;;;0.20;100.00
80180;BME280;69505;52.134;5.438;2024-03-07T06:48:48;102787.28;;;0.25;100.00
80180;BME280;69505;52.134;5.438;2024-03-07T06:51:14;102789.88;;;0.31;100.00
80180;BME280;69505;52.134;5.438;2024-03-07T06:53:45;102788.13;;;0.33;100.00
80180;BME280;69505;52.134;5.438;2024-03-07T06:56:15;102788.16;;;0.35;100.00
80180;BME280;69505;52.134;5.438;2024-03-07T06:58:43;102786.41;;;0.38;100.00
80180;BME280;69505;52.134;5.438;2024-03-07T07:01:12;102787.22;;;0.51;100.00
80180;BME280;69505;52.134;5.438;2024-03-07T07:03:42;102787.22;;;0.51;100.00
80180;BME280;69505;52.134;5.438;2024-03-07T07:06:12;102783.72;;;0.62;100.00
80180;BME280;69505;52.134;5.438;2024-03-07T07:08:39;102779.31;;;0.70;100.00
80180;BME280;69505;52.134;5.438;2024-03-07T07:11:06;102775.78;;;0.75;100.00
80180;BME280;69505;52.134;5.438;2024-03-07T07:13:33;102776.66;;;0.80;100.00
80180;BME280;69505;52.134;5.438;2024-03-07T07:16:00;102774.03;;;0.87;100.00
80180;BME280;69505;52.134;5.438;2024-03-07T07:18:28;102775.75;;;0.88;100.00
80180;BME280;69505;52.134;5.438;2024-03-07T07:20:55;102777.47;;;0.95;100.00
80180;BME280;69505;52.134;5.438;2024-03-07T07:23:23;102786.16;;;1.00;100.00
80180;BME280;69505;52.134;5.438;2024-03-07T07:25:50;102784.41;;;1.05;100.00
80180;BME280;69505;52.134;5.438;2024-03-07T07:28:16;102779.94;;;1.13;100.00
80180;BME280;69505;52.134;5.438;2024-03-07T07:30:43;102781.69;;;1.19;100.00
80180;BME280;69505;52.134;5.438;2024-03-07T07:33:11;102779.03;;;1.24;100.00
80180;BME280;69505;52.134;5.438;2024-03-07T07:35:39;102778.13;;;1.29;100.00
80180;BME280;69505;52.134;5.438;2024-03-07T07:38:07;102780.69;;;1.34;100.00
80180;BME280;69505;52.134;5.438;2024-03-07T07:40:37;102776.31;;;1.37;100.00
80180;BME280;69505;52.134;5.438;2024-03-07T07:43:03;102773.66;;;1.45;100.00
80180;BME280;69505;52.134;5.438;2024-03-07T07:45:30;102765.78;;;1.50;100.00
80180;BME280;69505;52.134;5.438;2024-03-07T07:47:59;102760.50;;;1.56;100.00
80180;BME280;69505;52.134;5.438;2024-03-07T07:50:26;102761.28;;;1.62;100.00
80180;BME280;69505;52.134;5.438;2024-03-07T07:52:56;102760.38;;;1.68;100.00
80180;BME280;69505;52.134;5.438;2024-03-07T07:55:27;102752.44;;;1.76;100.00
80180;BME280;69505;52.134;5.438;2024-03-07T07:57:58;102747.13;;;1.85;100.00
80180;BME280;69505;52.134;5.438;2024-03-07T08:00:27;102761.03;;;1.93;100.00
80180;BME280;69505;52.134;5.438;2024-03-07T08:02:58;102753.97;;;2.00;100.00
80180;BME280;69505;52.134;5.438;2024-03-07T08:05:26;102754.78;;;2.03;100.00
80180;BME280;69505;52.134;5.438;2024-03-07T08:08:05;102764.34;;;2.11;100.00
80180;BME280;69505;52.134;5.438;2024-03-07T08:10:34;102763.44;;;2.15;100.00
80180;BME280;69505;52.134;5.438;2024-03-07T08:13:03;102751.97;;;2.22;100.00
80180;BME280;69505;52.134;5.438;2024-03-07T08:15:30;102751.00;;;2.32;100.00
80180;BME280;69505;52.134;5.438;2024-03-07T08:17:58;102759.66;;;2.39;100.00
80180;BME280;69505;52.134;5.438;2024-03-07T08:20:26;102762.22;;;2.45;100.00
80180;BME280;69505;52.134;5.438;2024-03-07T08:22:54;102760.34;;;2.56;100.00
80180;BME280;69505;52.134;5.438;2024-03-07T08:25:23;102763.78;;;2.60;100.00
80180;BME280;69505;52.134;5.438;2024-03-07T08:27:51;102775.97;;;2.66;100.00
80180;BME280;69505;52.134;5.438;2024-03-07T08:30:19;102768.03;;;2.69;100.00
80180;BME280;69505;52.134;5.438;2024-03-07T08:32:50;102759.22;;;2.77;100.00
80180;BME280;69505;52.134;5.438;2024-03-07T08:35:21;102769.59;;;2.85;100.00
80180;BME280;69505;52.134;5.438;2024-03-07T08:37:50;102762.47;;;2.95;100.00
80180;BME280;69505;52.134;5.438;2024-03-07T08:40:25;102758.91;;;3.00;100.00
80180;BME280;69505;52.134;5.438;2024-03-07T08:42:55;102751.81;;;3.04;100.00
80180;BME280;69505;52.134;5.438;2024-03-07T08:45:25;102750.72;;;3.20;100.00
80180;BME280;69505;52.134;5.438;2024-03-07T08:47:56;102752.38;;;3.28;100.00
80180;BME280;69505;52.134;5.438;2024-03-07T08:50:25;102749.66;;;3.32;100.00
80180;BME280;69505;52.134;5.438;2024-03-07T08:52:54;102752.13;;;3.43;100.00
80180;BME280;69505;52.134;5.438;2024-03-07T08:55:23;102743.25;;;3.50;100.00
80180;BME280;69505;52.134;5.438;2024-03-07T08:57:51;102745.00;;;3.51;100.00
80180;BME280;69505;52.134;5.438;2024-03-07T09:00:19;102745.69;;;3.61;100.00
80180;BME280;69505;52.134;5.438;2024-03-07T09:05:21;102732.25;;;3.78;100.00
80180;BME280;69505;52.134;5.438;2024-03-07T09:07:53;102733.06;;;3.83;100.00
80180;BME280;69505;52.134;5.438;2024-03-07T09:10:20;102731.09;;;3.94;100.00
80180;BME280;69505;52.134;5.438;2024-03-07T09:12:49;102737.91;;;4.04;100.00
80180;BME280;69505;52.134;5.438;2024-03-07T09:15:16;102737.81;;;4.09;100.00
80180;BME280;69505;52.134;5.438;2024-03-07T09:17:44;102733.38;;;4.13;100.00
80180;BME280;69505;52.134;5.438;2024-03-07T09:20:12;102735.06;;;4.17;100.00
80180;BME280;69505;52.134;5.438;2024-03-07T09:22:43;102733.03;;;4.31;100.00
80180;BME280;69505;52.134;5.438;2024-03-07T09:25:09;102732.13;;;4.32;100.00
80180;BME280;69505;52.134;5.438;2024-03-07T09:27:40;102731.16;;;4.36;100.00
80180;BME280;69505;52.134;5.438;2024-03-07T09:30:10;102729.25;;;4.44;100.00
80180;BME280;69505;52.134;5.438;2024-03-07T09:32:42;102725.53;;;4.55;100.00
80180;BME280;69505;52.134;5.438;2024-03-07T09:35:10;102731.50;;;4.63;100.00
80180;BME280;69505;52.134;5.438;2024-03-07T09:37:39;102727.69;;;4.76;100.00
80180;BME280;69505;52.134;5.438;2024-03-07T09:40:07;102725.25;;;5.06;100.00
80180;BME280;69505;52.134;5.438;2024-03-07T09:42:41;102729.22;;;5.25;100.00
80180;BME280;69505;52.134;5.438;2024-03-07T09:45:12;102718.53;;;5.32;100.00
80180;BME280;69505;52.134;5.438;2024-03-07T09:47:40;102723.03;;;5.26;100.00
80180;BME280;69505;52.134;5.438;2024-03-07T09:50:07;102716.03;;;5.25;100.00
80180;BME280;69505;52.134;5.438;2024-03-07T09:52:35;102716.75;;;5.32;100.00
80180;BME280;69505;52.134;5.438;2024-03-07T09:55:02;102708.34;;;5.52;100.00
80180;BME280;69505;52.134;5.438;2024-03-07T09:57:31;102711.34;;;6.68;100.00
80180;BME280;69505;52.134;5.438;2024-03-07T10:00:00;102708.34;;;7.07;99.66
80180;BME280;69505;52.134;5.438;2024-03-07T10:02:31;102696.88;;;9.26;90.14
80180;BME280;69505;52.134;5.438;2024-03-07T10:04:58;102687.00;;;11.07;84.14
80180;BME280;69505;52.134;5.438;2024-03-07T10:07:25;102690.88;;;10.24;79.11
80180;BME280;69505;52.134;5.438;2024-03-07T10:09:52;102692.19;;;9.11;82.54
80180;BME280;69505;52.134;5.438;2024-03-07T10:12:22;102697.47;;;9.33;79.61
80180;BME280;69505;52.134;5.438;2024-03-07T10:14:50;102694.41;;;9.00;81.73
80180;BME280;69505;52.134;5.438;2024-03-07T10:17:18;102694.09;;;9.91;76.54
80180;BME280;69505;52.134;5.438;2024-03-07T10:19:48;102691.19;;;10.36;73.99
80180;BME280;69505;52.134;5.438;2024-03-07T10:22:17;102688.78;;;10.51;73.32
80180;BME280;69505;52.134;5.438;2024-03-07T10:24:53;102690.34;;;8.91;75.39
80180;BME280;69505;52.134;5.438;2024-03-07T10:27:23;102690.72;;;8.34;83.08
80180;BME280;69505;52.134;5.438;2024-03-07T10:29:53;102688.13;;;8.09;82.96
80180;BME280;69505;52.134;5.438;2024-03-07T10:32:21;102687.44;;;8.04;84.43
80180;BME280;69505;52.134;5.438;2024-03-07T10:34:53;102679.13;;;7.90;82.12
80180;BME280;69505;52.134;5.438;2024-03-07T10:37:21;102672.75;;;7.70;83.60
80180;BME280;69505;52.134;5.438;2024-03-07T10:39:47;102673.28;;;7.55;83.40
80180;BME280;69505;52.134;5.438;2024-03-07T10:42:17;102669.63;;;7.59;84.62
80180;BME280;69505;52.134;5.438;2024-03-07T10:44:45;102672.44;;;7.55;83.73
80180;BME280;69505;52.134;5.438;2024-03-07T10:47:19;102671.56;;;7.54;84.89
80180;BME280;69505;52.134;5.438;2024-03-07T10:52:46;102669.53;;;7.36;85.02
80180;BME280;69505;52.134;5.438;2024-03-07T10:55:25;102664.16;;;7.39;84.95
80180;BME280;69505;52.134;5.438;2024-03-07T10:58:07;102656.00;;;7.45;84.72
80180;BME280;69505;52.134;5.438;2024-03-07T11:00:38;102654.13;;;7.48;85.10
80180;BME280;69505;52.134;5.438;2024-03-07T11:03:13;102656.78;;;7.48;84.31
80180;BME280;69505;52.134;5.438;2024-03-07T11:05:41;102655.31;;;7.40;83.84
80180;BME280;69505;52.134;5.438;2024-03-07T11:08:10;102652.47;;;7.46;84.85
80180;BME280;69505;52.134;5.438;2024-03-07T11:10:40;102648.03;;;7.46;83.59
80180;BME280;69505;52.134;5.438;2024-03-07T11:13:09;102642.69;;;7.48;82.62
80180;BME280;69505;52.134;5.438;2024-03-07T11:15:46;102647.19;;;7.46;83.16
80180;BME280;69505;52.134;5.438;2024-03-07T11:18:13;102641.69;;;7.52;82.91
80180;BME280;69505;52.134;5.438;2024-03-07T11:20:40;102638.88;;;7.57;84.38
80180;BME280;69505;52.134;5.438;2024-03-07T11:26:09;102635.25;;;7.59;82.57
80180;BME280;69505;52.134;5.438;2024-03-07T11:28:42;102637.47;;;7.71;83.44
80180;BME280;69505;52.134;5.438;2024-03-07T11:31:15;102632.81;;;7.78;82.68
80180;BME280;69505;52.134;5.438;2024-03-07T11:34:14;102627.94;;;7.66;82.00
80180;BME280;69505;52.134;5.438;2024-03-07T11:36:42;102635.06;;;7.64;82.65
80180;BME280;69505;52.134;5.438;2024-03-07T11:39:43;102637.88;;;7.59;83.67
80180;BME280;69505;52.134;5.438;2024-03-07T11:42:26;102630.13;;;7.80;85.21
80180;BME280;69505;52.134;5.438;2024-03-07T11:44:54;102627.84;;;7.94;83.34
80180;BME280;69505;52.134;5.438;2024-03-07T11:47:35;102632.19;;;7.95;84.51
80180;BME280;69505;52.134;5.438;2024-03-07T11:50:05;102625.28;;;7.91;83.45
80180;BME280;69505;52.134;5.438;2024-03-07T11:52:39;102622.94;;;8.07;83.37
80180;BME280;69505;52.134;5.438;2024-03-07T11:55:11;102620.13;;;8.11;82.66
80180;BME280;69505;52.134;5.438;2024-03-07T11:57:38;102621.72;;;8.16;82.10
80180;BME280;69505;52.134;5.438;2024-03-07T12:00:07;102609.06;;;8.24;83.79
80180;BME280;69505;52.134;5.438;2024-03-07T12:02:37;102608.47;;;8.39;83.83
80180;BME280;69505;52.134;5.438;2024-03-07T12:05:08;102603.41;;;8.33;80.99
80180;BME280;69505;52.134;5.438;2024-03-07T12:07:36;102608.84;;;8.30;80.22
80180;BME280;69505;52.134;5.438;2024-03-07T12:10:03;102597.72;;;8.20;81.13
80180;BME280;69505;52.134;5.438;2024-03-07T12:12:32;102594.31;;;8.40;79.96
80180;BME280;69505;52.134;5.438;2024-03-07T12:15:00;102590.75;;;8.41;79.82
80180;BME280;69505;52.134;5.438;2024-03-07T12:17:31;102586.16;;;8.46;80.25
80180;BME280;69505;52.134;5.438;2024-03-07T12:19:58;102582.09;;;8.60;78.93
80180;BME280;69505;52.134;5.438;2024-03-07T12:22:29;102571.81;;;8.74;77.64
80180;BME280;69505;52.134;5.438;2024-03-07T12:25:01;102561.31;;;8.71;77.94
80180;BME280;69505;52.134;5.438;2024-03-07T12:27:35;102548.75;;;8.76;81.22
80180;BME280;69505;52.134;5.438;2024-03-07T12:30:15;102552.06;;;8.81;78.11
80180;BME280;69505;52.134;5.438;2024-03-07T12:32:48;102549.22;;;8.86;78.36
80180;BME280;69505;52.134;5.438;2024-03-07T12:35:15;102535.91;;;8.87;76.63
80180;BME280;69505;52.134;5.438;2024-03-07T12:37:42;102530.81;;;8.83;76.79
80180;BME280;69505;52.134;5.438;2024-03-07T12:40:12;102527.59;;;8.97;79.14
80180;BME280;69505;52.134;5.438;2024-03-07T12:42:47;102523.41;;;9.11;79.69
80180;BME280;69505;52.134;5.438;2024-03-07T12:45:17;102519.22;;;9.26;78.03
80180;BME280;69505;52.134;5.438;2024-03-07T12:47:47;102520.34;;;9.21;77.80
80180;BME280;69505;52.134;5.438;2024-03-07T12:50:18;102513.28;;;9.40;75.92
80180;BME280;69505;52.134;5.438;2024-03-07T12:52:47;102510.53;;;9.43;77.42
80180;BME280;69505;52.134;5.438;2024-03-07T12:55:18;102517.81;;;9.38;77.60
80180;BME280;69505;52.134;5.438;2024-03-07T12:57:46;102513.03;;;9.46;76.41
80180;BME280;69505;52.134;5.438;2024-03-07T13:00:13;102512.97;;;9.67;77.79
80180;BME280;69505;52.134;5.438;2024-03-07T13:02:47;102507.59;;;9.68;75.38
80180;BME280;69505;52.134;5.438;2024-03-07T13:05:14;102501.75;;;9.81;77.84
80180;BME280;69505;52.134;5.438;2024-03-07T13:07:48;102502.50;;;10.02;76.25
80180;BME280;69505;52.134;5.438;2024-03-07T13:10:15;102502.28;;;10.06;77.50
80180;BME280;69505;52.134;5.438;2024-03-07T13:12:42;102487.94;;;10.10;74.15
80180;BME280;69505;52.134;5.438;2024-03-07T13:15:12;102482.63;;;10.10;75.34
80180;BME280;69505;52.134;5.438;2024-03-07T13:17:39;102481.88;;;10.26;76.52
80180;BME280;69505;52.134;5.438;2024-03-07T13:20:08;102476.13;;;10.35;74.76